Time;durP1;ratioP1;P1;durP2;ratioP2;P2;SDS_P1;SDS_P2;PMS_P1;PMS_P2;Temp;Humidity;BMP_temperature;BMP_pressure;BME280_temperature;BME280_humidity;BME280_pressure;Samples;Min_cycle;Max_cycle;Signal;HPM_P1;HPM_P2
2022/10/01 00:01:46;;;;;;;;;3.33;3.00;;;;;13.84;72.55;100479.78;5018225;28;45375;-42
2022/10/01 00:04:11;;;;;;;;;4.00;4.00;;;;;13.80;73.62;100468.59;5018342;28;45477;-41
2022/10/01 00:06:37;;;;;;;;;3.00;3.00;;;;;13.84;71.65;100453.88;5018288;28;45349;-43
2022/10/01 00:09:02;;;;;;;;;3.33;2.00;;;;;13.85;72.15;100458.19;5018510;28;45366;-42
2022/10/01 00:11:28;;;;;;;;;4.33;3.00;;;;;13.86;73.42;100451.88;5018027;28;45406;-42
2022/10/01 00:13:54;;;;;;;;;6.33;3.67;;;;;13.90;73.72;100457.66;5017959;28;45431;-44
2022/10/01 00:16:24;;;;;;;;;4.33;1.67;;;;;13.88;72.78;100449.84;5018208;28;45314;-44
2022/10/01 00:18:52;;;;;;;;;7.67;3.67;;;;;13.88;73.52;100438.31;5017835;28;45337;-47
2022/10/01 00:21:21;;;;;;;;;6.00;3.00;;;;;13.77;72.32;100417.31;5017780;28;46011;-48
2022/10/01 00:23:46;;;;;;;;;2.00;2.00;;;;;13.87;72.96;100436.66;5000121;28;45386;-43
2022/10/01 00:26:19;;;;;;;;;3.00;3.00;;;;;13.91;72.44;100457.50;5017742;28;45414;-42
2022/10/01 00:28:47;;;;;;;;;2.00;2.00;;;;;13.92;73.00;100405.69;5018352;28;45344;-42
2022/10/01 00:31:14;;;;;;;;;2.00;2.00;;;;;13.94;73.46;100424.22;5017844;28;45309;-43
2022/10/01 00:33:39;;;;;;;;;2.67;2.00;;;;;13.94;73.60;100403.66;5017605;28;45320;-41
2022/10/01 00:36:06;;;;;;;;;4.00;2.33;;;;;13.96;73.19;100400.81;5017945;28;45403;-42
2022/10/01 00:38:32;;;;;;;;;3.00;3.00;;;;;13.94;73.52;100389.47;5017965;28;45348;-43
2022/10/01 00:40:58;;;;;;;;;2.33;2.00;;;;;14.00;74.08;100390.63;5017553;28;46018;-42
2022/10/01 00:43:27;;;;;;;;;4.00;2.67;;;;;14.00;74.90;100388.78;5017372;28;45671;-49
2022/10/01 00:45:56;;;;;;;;;2.00;2.00;;;;;14.00;73.97;100426.22;5017868;28;45353;-45
2022/10/01 00:48:24;;;;;;;;;4.00;2.00;;;;;14.00;73.97;100412.00;5017917;28;45515;-41
2022/10/01 00:50:51;;;;;;;;;3.00;2.00;;;;;14.02;75.33;100416.16;5017634;28;45690;-42
2022/10/01 00:53:19;;;;;;;;;3.33;3.00;;;;;14.01;74.59;100408.31;5017457;28;45314;-43
2022/10/01 00:55:50;;;;;;;;;2.00;2.00;;;;;14.03;74.51;100406.28;5017679;28;45424;-42
2022/10/01 00:58:17;;;;;;;;;1.33;1.00;;;;;14.06;74.65;100420.13;5017682;28;45462;-42
2022/10/01 01:00:45;;;;;;;;;2.00;0.67;;;;;14.07;73.81;100394.22;5017410;28;46049;-45
2022/10/01 01:03:11;;;;;;;;;1.67;1.67;;;;;14.06;75.23;100413.97;5017206;28;45443;-44
2022/10/01 01:05:38;;;;;;;;;3.67;2.00;;;;;14.06;75.80;100405.94;5016886;28;45388;-43
2022/10/01 01:08:04;;;;;;;;;2.00;2.00;;;;;14.03;75.92;100417.84;5017364;28;45418;-45
2022/10/01 01:10:44;;;;;;;;;1.00;1.00;;;;;14.04;76.11;100416.81;5016715;28;46277;-43
2022/10/01 01:13:33;;;;;;;;;0.67;0.00;;;;;14.01;75.78;100406.47;5017009;28;45387;-42
2022/10/01 01:16:23;;;;;;;;;2.00;2.00;;;;;13.97;76.51;100410.50;5017278;28;45322;-42
2022/10/01 01:18:59;;;;;;;;;2.67;2.67;;;;;13.97;76.45;100397.13;5017423;28;45315;-42
2022/10/01 01:21:41;;;;;;;;;2.00;2.00;;;;;13.96;76.52;100403.50;5016754;28;46221;-42
2022/10/01 01:24:25;;;;;;;;;2.33;1.33;;;;;13.97;76.09;100415.84;5016824;28;45305;-42
2022/10/01 01:27:07;;;;;;;;;4.00;1.67;;;;;14.01;76.81;100409.16;5016948;28;45300;-46
2022/10/01 01:29:52;;;;;;;;;1.33;1.33;;;;;14.00;77.11;100394.13;5017108;28;45393;-46
2022/10/01 01:32:29;;;;;;;;;2.00;2.00;;;;;14.02;77.01;100394.75;5016895;28;45380;-44
2022/10/01 01:35:01;;;;;;;;;1.67;1.67;;;;;14.06;76.17;100380.03;5017078;28;45174;-46
2022/10/01 01:37:30;;;;;;;;;3.33;2.00;;;;;14.06;77.38;100377.34;5016975;28;45438;-48
2022/10/01 01:39:58;;;;;;;;;1.67;1.00;;;;;14.06;77.08;100368.50;5017197;28;45449;-43
2022/10/01 01:42:36;;;;;;;;;2.00;2.00;;;;;14.10;76.05;100375.16;5016661;28;46485;-44
2022/10/01 01:45:08;;;;;;;;;2.00;1.67;;;;;14.02;77.50;100357.31;5016749;28;45519;-46
2022/10/01 01:47:35;;;;;;;;;2.67;1.00;;;;;14.16;77.07;100369.09;5016878;28;45167;-45
2022/10/01 01:50:02;;;;;;;;;3.33;1.67;;;;;14.17;76.64;100366.25;4998885;28;45320;-42
2022/10/01 01:52:28;;;;;;;;;0.00;0.00;;;;;14.18;76.96;100367.06;5016500;28;46014;-43
2022/10/01 01:54:55;;;;;;;;;1.00;1.00;;;;;14.09;76.89;100352.09;4998899;28;45476;-43
2022/10/01 01:57:20;;;;;;;;;1.00;1.00;;;;;14.17;78.05;100352.84;5016687;28;45269;-42
2022/10/01 01:59:46;;;;;;;;;2.67;0.33;;;;;14.20;76.53;100349.00;4999032;28;45430;-43
2022/10/01 02:02:22;;;;;;;;;0.67;0.67;;;;;14.20;78.18;100351.69;5015661;28;46306;-45
2022/10/01 02:04:55;;;;;;;;;1.00;1.00;;;;;14.19;78.26;100366.03;5016649;28;45356;-53
2022/10/01 02:08:01;;;;;;;;;0.00;0.00;;;;;14.19;76.94;100350.81;5016581;28;45433;-45
2022/10/01 02:10:38;;;;;;;;;1.00;1.00;;;;;14.21;77.79;100353.34;5016020;28;45608;-44
2022/10/01 02:13:26;;;;;;;;;3.00;0.00;;;;;14.22;77.00;100337.09;5016082;28;46903;-42
2022/10/01 02:15:58;;;;;;;;;1.00;1.00;;;;;14.21;78.39;100351.50;5015300;28;45385;-42
2022/10/01 02:18:32;;;;;;;;;1.00;1.00;;;;;14.23;78.45;100349.44;5016338;28;45348;-44
2022/10/01 02:21:19;;;;;;;;;1.00;1.00;;;;;14.24;77.62;100336.91;5016553;28;45353;-43
2022/10/01 02:24:03;;;;;;;;;1.00;1.00;;;;;14.28;76.91;100334.69;5015850;28;45483;-48
2022/10/01 02:26:31;;;;;;;;;0.00;0.00;;;;;14.29;78.58;100326.53;5016016;28;45571;-42
2022/10/01 02:29:02;;;;;;;;;0.00;0.00;;;;;14.32;76.83;100330.66;5016178;28;45324;-42
2022/10/01 02:31:29;;;;;;;;;1.33;0.00;;;;;14.30;77.91;100314.78;5016301;28;45195;-43
2022/10/01 02:33:58;;;;;;;;;0.00;0.00;;;;;14.33;78.13;100329.66;5015828;28;46213;-42
2022/10/01 02:36:26;;;;;;;;;0.00;0.00;;;;;14.38;77.99;100333.44;5015984;28;45466;-43
2022/10/01 02:38:54;;;;;;;;;1.00;0.00;;;;;14.41;77.95;100332.25;5016089;28;45388;-44
2022/10/01 02:41:25;;;;;;;;;1.00;0.67;;;;;14.45;77.90;100344.25;5016326;28;45612;-49
2022/10/01 02:44:05;;;;;;;;;0.00;0.00;;;;;14.43;78.03;100333.72;5015825;28;46295;-43
2022/10/01 02:46:43;;;;;;;;;0.00;0.00;;;;;14.48;77.67;100336.72;5015947;28;45504;-44
2022/10/01 02:49:10;;;;;;;;;0.00;0.00;;;;;14.42;77.78;100304.50;5015994;28;45439;-49
2022/10/01 02:52:01;;;;;;;;;1.00;1.00;;;;;14.52;78.11;100339.03;5015934;28;45540;-42
2022/10/01 02:54:53;;;;;;;;;2.00;1.00;;;;;14.53;77.66;100320.13;5015566;28;47220;-41
2022/10/01 02:57:23;;;;;;;;;0.33;0.00;;;;;14.56;77.01;100317.06;5015694;28;45333;-46
2022/10/01 02:59:49;;;;;;;;;0.00;0.00;;;;;14.48;77.31;100299.25;5016113;28;45381;-49
2022/10/01 03:02:15;;;;;;;;;1.00;1.00;;;;;14.57;78.12;100300.00;5015861;28;45472;-42
2022/10/01 03:04:40;;;;;;;;;2.00;0.00;;;;;14.58;77.49;100290.97;5015460;28;46288;-42
2022/10/01 03:07:05;;;;;;;;;0.00;0.00;;;;;14.50;78.38;100284.88;5015420;28;45416;-42
2022/10/01 03:09:33;;;;;;;;;0.00;0.00;;;;;14.61;77.30;100279.88;5015732;28;45264;-43
2022/10/01 03:11:59;;;;;;;;;1.00;0.00;;;;;14.58;78.57;100290.97;5015847;28;45433;-42
2022/10/01 03:14:25;;;;;;;;;0.00;0.00;;;;;14.62;78.29;100291.41;5015236;28;47034;-43
2022/10/01 03:16:51;;;;;;;;;0.00;0.00;;;;;14.63;78.80;100279.72;5015503;28;45339;-43
2022/10/01 03:19:16;;;;;;;;;1.00;1.00;;;;;14.64;78.62;100282.19;5015611;28;45334;-42
2022/10/01 03:21:42;;;;;;;;;1.00;0.00;;;;;14.64;78.69;100292.91;5015548;28;45361;-41
2022/10/01 03:24:08;;;;;;;;;0.33;0.33;;;;;14.58;78.88;100276.72;5015449;28;45339;-42
2022/10/01 03:26:34;;;;;;;;;0.00;0.00;;;;;14.68;78.97;100286.16;5015633;28;45396;-46
2022/10/01 03:29:00;;;;;;;;;0.00;0.00;;;;;14.67;78.21;100295.22;5018783;28;45848;-42
2022/10/01 03:31:25;;;;;;;;;0.00;0.00;;;;;14.71;79.47;100309.91;5019261;28;45403;-48
2022/10/01 03:33:51;;;;;;;;;1.00;0.00;;;;;14.76;77.27;100306.66;5018513;28;45321;-42
2022/10/01 03:36:16;;;;;;;;;1.00;1.00;;;;;14.72;77.41;100287.47;5001151;28;45403;-45
2022/10/01 03:38:41;;;;;;;;;0.00;0.00;;;;;14.72;78.97;100284.78;5018163;28;45388;-43
2022/10/01 03:41:07;;;;;;;;;0.00;0.00;;;;;14.76;78.57;100290.59;5019154;28;45340;-42
2022/10/01 03:43:32;;;;;;;;;0.00;0.00;;;;;14.80;79.03;100280.34;5018708;28;47230;-48
2022/10/01 03:45:57;;;;;;;;;0.00;0.00;;;;;14.84;79.29;100295.03;5018704;28;45194;-49
2022/10/01 03:48:23;;;;;;;;;0.00;0.00;;;;;14.85;79.15;100278.78;5018960;28;45361;-42
2022/10/01 03:50:57;;;;;;;;;0.00;0.00;;;;;14.87;78.46;100274.03;5019199;28;45793;-43
2022/10/01 03:53:25;;;;;;;;;0.00;0.00;;;;;14.85;78.19;100269.91;5018525;28;46146;-44
2022/10/01 03:55:51;;;;;;;;;0.00;0.00;;;;;14.92;78.53;100284.22;5018691;28;45482;-43
2022/10/01 03:58:17;;;;;;;;;0.00;0.00;;;;;14.92;78.48;100292.25;5018709;28;45384;-45
2022/10/01 04:00:43;;;;;;;;;0.00;0.00;;;;;14.93;78.91;100310.81;5018745;28;45451;-42
2022/10/01 04:03:09;;;;;;;;;0.33;0.00;;;;;14.94;78.51;100299.06;5018417;28;46298;-43
2022/10/01 04:05:34;;;;;;;;;0.00;0.00;;;;;15.00;80.20;100321.63;5018477;28;45440;-42
2022/10/01 04:07:59;;;;;;;;;0.00;0.00;;;;;15.02;80.15;100330.28;5018693;28;45369;-50
2022/10/01 04:10:25;;;;;;;;;0.00;0.00;;;;;15.01;80.12;100330.50;5000688;28;45550;-43
2022/10/01 04:12:50;;;;;;;;;0.00;0.00;;;;;15.02;80.42;100316.06;5018378;28;45333;-44
2022/10/01 04:15:16;;;;;;;;;0.00;0.00;;;;;15.01;80.15;100319.78;5018170;28;45356;-43
2022/10/01 04:17:41;;;;;;;;;0.00;0.00;;;;;14.98;80.84;100331.69;5018385;28;45547;-50
2022/10/01 04:20:07;;;;;;;;;0.00;0.00;;;;;15.05;80.64;100337.97;5018496;28;45340;-42
2022/10/01 04:22:39;;;;;;;;;0.00;0.00;;;;;15.05;80.08;100329.94;5017941;28;46124;-49
2022/10/01 04:25:06;;;;;;;;;0.00;0.00;;;;;15.04;80.81;100333.59;5018112;28;45361;-45
2022/10/01 04:27:31;;;;;;;;;1.00;0.00;;;;;15.13;80.59;100347.75;5018005;28;45408;-43
2022/10/01 04:29:57;;;;;;;;;0.67;0.00;;;;;15.15;79.96;100354.56;5018283;28;45520;-43
2022/10/01 04:32:22;;;;;;;;;0.00;0.00;;;;;15.15;81.22;100367.97;5017818;28;46135;-44
2022/10/01 04:34:53;;;;;;;;;0.00;0.00;;;;;15.17;80.95;100360.59;5018146;28;45369;-42
2022/10/01 04:37:20;;;;;;;;;0.00;0.00;;;;;15.20;81.19;100362.06;5018432;28;45420;-45
2022/10/01 04:39:46;;;;;;;;;0.00;0.00;;;;;15.22;80.87;100360.03;5016477;28;45586;-46
2022/10/01 04:42:12;;;;;;;;;0.00;0.00;;;;;15.11;80.32;100355.97;5017778;28;46145;-43
2022/10/01 04:44:38;;;;;;;;;0.00;0.00;;;;;15.26;81.32;100364.00;5017530;28;45276;-44
2022/10/01 04:47:04;;;;;;;;;0.00;0.00;;;;;15.28;80.37;100372.69;5017802;28;45380;-45
2022/10/01 04:49:31;;;;;;;;;0.00;0.00;;;;;15.26;81.24;100364.00;5017979;28;45293;-44
2022/10/01 04:51:57;;;;;;;;;0.00;0.00;;;;;15.32;81.26;100375.81;5017178;28;46295;-43
2022/10/01 04:54:22;;;;;;;;;0.00;0.00;;;;;15.33;80.41;100386.34;5017621;28;45427;-42
2022/10/01 04:56:47;;;;;;;;;0.00;0.00;;;;;15.38;81.34;100389.31;5017871;28;45416;-43
2022/10/01 04:59:13;;;;;;;;;0.00;0.00;;;;;15.40;81.13;100387.28;5017824;28;45356;-42
2022/10/01 05:01:39;;;;;;;;;0.00;0.00;;;;;15.40;81.49;100398.00;5017279;28;46177;-46
2022/10/01 05:04:04;;;;;;;;;0.00;0.00;;;;;15.43;80.79;100380.72;5017445;28;45397;-41
2022/10/01 05:06:29;;;;;;;;;0.00;0.00;;;;;15.43;79.76;100388.75;5017455;28;45237;-42
2022/10/01 05:08:55;;;;;;;;;0.00;0.00;;;;;15.42;80.48;100387.94;5017640;28;45456;-42
2022/10/01 05:11:20;;;;;;;;;0.00;0.00;;;;;15.43;81.76;100402.16;5017457;28;47300;-41
2022/10/01 05:13:45;;;;;;;;;0.00;0.00;;;;;15.42;81.07;100398.66;4999399;28;45474;-44
2022/10/01 05:16:11;;;;;;;;;0.00;0.00;;;;;15.43;81.18;100394.94;5017614;28;45333;-41
2022/10/01 05:18:39;;;;;;;;;0.00;0.00;;;;;15.42;80.17;100397.78;5017440;28;45525;-42
2022/10/01 05:21:06;;;;;;;;;0.00;0.00;;;;;15.42;81.55;100395.09;5017413;28;45470;-43
2022/10/01 05:23:32;;;;;;;;;1.00;0.00;;;;;15.43;81.89;100413.72;5016949;28;45444;-41
2022/10/01 05:25:57;;;;;;;;;0.00;0.00;;;;;15.31;81.28;100390.25;5017249;28;45341;-42
2022/10/01 05:28:23;;;;;;;;;0.33;0.00;;;;;15.42;81.62;100408.50;5017265;28;45474;-43
2022/10/01 05:30:49;;;;;;;;;0.00;0.00;;;;;15.43;81.96;100411.03;5017012;28;46145;-43
2022/10/01 05:33:15;;;;;;;;;0.00;0.00;;;;;15.44;82.08;100409.19;5017119;28;45332;-45
2022/10/01 05:35:40;;;;;;;;;0.00;0.00;;;;;15.44;81.95;100415.38;5016831;28;45330;-43
2022/10/01 05:38:06;;;;;;;;;0.00;0.00;;;;;15.32;81.99;100394.56;5017228;28;45553;-51
2022/10/01 05:40:32;;;;;;;;;0.00;0.00;;;;;15.45;81.74;100421.56;5016732;28;46857;-43
2022/10/01 05:42:59;;;;;;;;;0.00;0.00;;;;;15.46;81.46;100428.56;5015975;28;45352;-44
2022/10/01 05:45:29;;;;;;;;;0.33;0.00;;;;;15.46;81.99;100432.09;5017030;28;45778;-43
2022/10/01 05:47:59;;;;;;;;;0.00;0.00;;;;;15.50;81.87;100443.25;4999115;28;45464;-42
2022/10/01 05:50:25;;;;;;;;;0.00;0.00;;;;;15.52;81.54;100443.09;5015842;28;46489;-42
2022/10/01 05:52:52;;;;;;;;;0.00;0.00;;;;;15.53;81.73;100450.94;5016318;28;45392;-44
2022/10/01 05:55:18;;;;;;;;;0.00;0.00;;;;;15.55;81.65;100456.09;5016967;28;45447;-44
2022/10/01 05:57:43;;;;;;;;;0.00;0.00;;;;;15.56;80.92;100457.78;5016951;28;45450;-42
2022/10/01 06:00:11;;;;;;;;;0.00;0.00;;;;;15.57;81.18;100457.59;5016126;28;45948;-43
2022/10/01 06:02:37;;;;;;;;;0.00;0.00;;;;;15.56;81.31;100455.13;5016727;28;45274;-43
2022/10/01 06:05:02;;;;;;;;;0.00;0.00;;;;;15.59;80.79;100471.66;4999061;28;45450;-43
2022/10/01 06:07:30;;;;;;;;;0.00;0.00;;;;;15.63;80.90;100474.78;5016798;28;45351;-44
2022/10/01 06:09:56;;;;;;;;;1.00;0.00;;;;;15.64;80.84;100474.66;5016432;28;45585;-44
2022/10/01 06:12:22;;;;;;;;;0.00;0.00;;;;;15.66;80.39;100486.00;5015448;28;45466;-45
2022/10/01 06:14:47;;;;;;;;;0.33;0.00;;;;;15.67;80.45;100486.81;5016492;28;45399;-42
2022/10/01 06:17:13;;;;;;;;;0.00;0.00;;;;;15.70;80.58;100500.69;5016574;28;45382;-43
2022/10/01 06:19:38;;;;;;;;;0.00;0.00;;;;;15.73;79.86;100509.41;5016381;28;45417;-43
2022/10/01 06:22:03;;;;;;;;;0.00;0.00;;;;;15.75;79.62;100505.50;5015931;28;45438;-43
2022/10/01 06:24:30;;;;;;;;;0.00;0.00;;;;;15.77;79.81;100505.34;5016421;28;45436;-43
2022/10/01 06:26:56;;;;;;;;;0.00;0.00;;;;;15.80;79.63;100513.84;5016441;28;45317;-43
2022/10/01 06:29:22;;;;;;;;;0.00;0.00;;;;;15.81;79.72;100512.00;5015836;28;45948;-45
2022/10/01 06:31:47;;;;;;;;;0.67;0.00;;;;;15.83;79.50;100518.00;5016348;28;45374;-46
2022/10/01 06:34:12;;;;;;;;;3.33;0.33;;;;;15.87;79.53;100516.59;5016299;28;45451;-43
2022/10/01 06:36:38;;;;;;;;;0.00;0.00;;;;;15.87;79.23;100512.06;5016518;28;45317;-46
2022/10/01 06:39:03;;;;;;;;;0.00;0.00;;;;;15.90;78.62;100516.22;5015877;28;46004;-54
2022/10/01 06:41:28;;;;;;;;;0.00;0.00;;;;;15.93;77.91;100510.50;5016350;28;45468;-51
2022/10/01 06:43:53;;;;;;;;;0.00;0.00;;;;;15.94;77.86;100513.00;5016017;28;45361;-56
2022/10/01 06:46:19;;;;;;;;;0.00;0.00;;;;;15.99;77.70;100530.38;5016335;28;45226;-51
2022/10/01 06:48:44;;;;;;;;;0.67;0.00;;;;;16.01;77.32;100531.84;5015954;28;47151;-43
2022/10/01 06:51:09;;;;;;;;;5.00;0.00;;;;;15.98;77.19;100518.81;5015421;28;45302;-44
2022/10/01 06:53:35;;;;;;;;;0.00;0.00;;;;;16.03;76.93;100521.75;5016083;28;45341;-45
2022/10/01 06:56:06;;;;;;;;;0.00;0.00;;;;;16.04;77.09;100527.94;5015999;28;45361;-42
2022/10/01 06:58:31;;;;;;;;;0.00;0.00;;;;;16.07;77.32;100538.31;5015702;28;45206;-42
2022/10/01 07:01:01;;;;;;;;;2.00;0.00;;;;;16.10;77.00;100533.41;5015662;28;45572;-43
2022/10/01 07:03:27;;;;;;;;;0.00;0.00;;;;;16.11;76.98;100544.97;5015219;28;45314;-44
2022/10/01 07:05:53;;;;;;;;;1.00;0.00;;;;;16.14;77.26;100540.06;5015906;28;45376;-43
2022/10/01 07:08:19;;;;;;;;;0.00;0.00;;;;;16.19;76.77;100545.69;5015440;28;46881;-46
2022/10/01 07:10:45;;;;;;;;;1.33;0.00;;;;;16.26;76.63;100547.63;5015740;28;45335;-43
2022/10/01 07:13:16;;;;;;;;;0.33;0.33;;;;;16.36;76.09;100557.06;5015583;28;45432;-42
2022/10/01 07:15:42;;;;;;;;;2.00;0.33;;;;;16.44;76.02;100558.78;5015695;28;45335;-42
2022/10/01 07:18:11;;;;;;;;;0.33;0.00;;;;;16.49;76.00;100564.41;4997408;28;46823;-42
2022/10/01 07:20:40;;;;;;;;;0.00;0.00;;;;;16.50;75.60;100570.63;5015278;28;45396;-43
2022/10/01 07:23:09;;;;;;;;;0.75;0.00;;;;;16.56;75.44;100575.22;5015436;28;45352;-43
2022/10/01 07:25:37;;;;;;;;;0.00;0.00;;;;;16.61;75.02;100583.56;5014753;28;45320;-44
2022/10/01 07:28:04;;;;;;;;;0.00;0.00;;;;;16.63;75.15;100590.38;5015164;28;47094;-43
2022/10/01 07:30:30;;;;;;;;;0.00;0.00;;;;;16.63;74.98;100589.56;5015414;28;45298;-43
2022/10/01 07:32:56;;;;;;;;;0.00;0.00;;;;;16.56;75.29;100581.44;5015384;28;45319;-46
2022/10/01 07:35:21;;;;;;;;;0.00;0.00;;;;;16.58;74.99;100587.44;5015608;28;45406;-46
2022/10/01 07:37:48;;;;;;;;;0.33;0.33;;;;;16.66;75.15;100608.81;5015038;28;45936;-45
2022/10/01 07:40:18;;;;;;;;;2.25;0.00;;;;;16.68;74.79;100605.94;5015044;28;45342;-45
2022/10/01 07:42:55;;;;;;;;;2.00;0.00;;;;;16.70;74.21;100610.09;5015287;28;45319;-43
2022/10/01 07:45:24;;;;;;;;;0.00;0.00;;;;;16.65;74.14;100591.03;5015340;28;45396;-43
2022/10/01 07:47:57;;;;;;;;;1.00;0.00;;;;;16.79;74.00;100610.00;5014215;28;46307;-43
2022/10/01 07:50:24;;;;;;;;;2.00;0.25;;;;;16.80;73.31;100617.03;5015036;28;45415;-42
2022/10/01 07:52:53;;;;;;;;;1.00;1.00;;;;;16.82;73.16;100618.53;5014932;28;45479;-43
2022/10/01 07:55:20;;;;;;;;;2.00;0.00;;;;;16.86;72.97;100619.00;5015440;28;45336;-42
2022/10/01 07:57:52;;;;;;;;;0.25;0.00;;;;;16.89;72.58;100626.63;5014912;28;45362;-42
2022/10/01 08:00:19;;;;;;;;;0.75;0.75;;;;;16.94;72.70;100626.94;5014781;28;45197;-43
2022/10/01 08:02:54;;;;;;;;;1.75;1.00;;;;;17.01;71.85;100638.56;4997145;28;45376;-43
2022/10/01 08:05:25;;;;;;;;;0.50;0.50;;;;;17.06;71.50;100632.59;5015247;28;45554;-43
2022/10/01 08:07:52;;;;;;;;;1.25;0.00;;;;;17.16;70.56;100633.97;5014721;28;46431;-42
2022/10/01 08:10:19;;;;;;;;;5.00;1.00;;;;;17.34;70.08;100638.03;5015006;28;45418;-46
2022/10/01 08:12:45;;;;;;;;;6.25;0.25;;;;;17.45;69.40;100629.47;5014735;28;45344;-43
2022/10/01 08:15:13;;;;;;;;;1.00;1.00;;;;;17.79;67.88;100638.66;5017485;28;45316;-43
2022/10/01 08:17:39;;;;;;;;;4.50;1.50;;;;;17.90;67.18;100632.69;5018089;28;45365;-45
2022/10/01 08:20:06;;;;;;;;;1.50;0.00;;;;;18.08;66.19;100641.13;5000179;28;45732;-41
2022/10/01 08:22:32;;;;;;;;;1.25;1.00;;;;;18.17;66.40;100650.69;5018069;28;45511;-43
2022/10/01 08:24:57;;;;;;;;;1.50;0.25;;;;;18.19;65.85;100651.31;5018344;28;45198;-42
2022/10/01 08:27:26;;;;;;;;;4.00;0.50;;;;;18.19;65.19;100659.38;5017981;28;45245;-43
2022/10/01 08:29:52;;;;;;;;;1.00;0.00;;;;;18.12;65.16;100657.69;5017906;28;45357;-43
2022/10/01 08:32:18;;;;;;;;;2.75;1.00;;;;;18.05;64.77;100665.72;5017834;28;45335;-43
2022/10/01 08:34:44;;;;;;;;;2.00;1.00;;;;;17.90;64.99;100646.16;5018219;28;45409;-43
2022/10/01 08:37:09;;;;;;;;;2.00;0.50;;;;;17.92;64.61;100665.66;5017633;28;46130;-45
2022/10/01 08:39:35;;;;;;;;;1.75;1.75;;;;;17.86;64.93;100671.78;5017618;28;45411;-41
2022/10/01 08:42:14;;;;;;;;;3.00;3.00;;;;;17.82;65.53;100671.34;5017645;28;45371;-42
2022/10/01 08:44:42;;;;;;;;;1.75;1.75;;;;;17.69;65.84;100663.97;5018011;28;45384;-41
2022/10/01 08:47:53;;;;;;;;;2.75;0.75;;;;;17.82;65.65;100682.13;5017534;28;46285;-42
2022/10/01 08:50:38;;;;;;;;;1.50;1.00;;;;;17.88;65.07;100692.09;4975850;28;45476;-44
2022/10/01 08:53:10;;;;;;;;;3.00;1.00;;;;;18.01;64.83;100694.06;4975640;28;45470;-43
2022/10/01 08:55:36;;;;;;;;;3.00;1.00;;;;;18.12;64.76;100700.78;4976224;28;45435;-42
2022/10/01 08:58:08;;;;;;;;;1.75;0.75;;;;;18.25;64.44;100714.31;4975736;28;46349;-42
2022/10/01 09:00:39;;;;;;;;;3.00;1.75;;;;;18.39;64.05;100720.59;4975614;28;45504;-44
2022/10/01 09:03:09;;;;;;;;;1.50;1.00;;;;;18.54;63.69;100723.16;4975503;28;45829;-41
2022/10/01 09:05:54;;;;;;;;;5.00;2.00;;;;;18.70;63.60;100721.00;4959527;28;45629;-42
2022/10/01 09:08:43;;;;;;;;;3.00;1.00;;;;;18.90;63.11;100722.94;4974697;28;45409;-41
2022/10/01 09:11:25;;;;;;;;;2.75;2.50;;;;;19.06;63.01;100730.69;4953072;28;45462;-41
2022/10/01 09:13:57;;;;;;;;;2.50;2.00;;;;;19.14;62.97;100737.75;4956056;28;45372;-43
2022/10/01 09:16:34;;;;;;;;;5.75;2.25;;;;;19.16;62.76;100738.38;4955959;28;45598;-43
2022/10/01 09:19:14;;;;;;;;;3.75;2.00;;;;;19.15;62.80;100731.31;4955383;28;46374;-42
2022/10/01 09:21:53;;;;;;;;;2.50;0.25;;;;;19.14;63.12;100732.38;4955761;28;45471;-45
2022/10/01 09:24:27;;;;;;;;;4.50;1.75;;;;;19.12;62.92;100739.81;4955978;28;45555;-43
2022/10/01 09:26:52;;;;;;;;;5.25;1.25;;;;;19.09;63.08;100745.63;4996403;28;45497;-43
2022/10/01 09:29:27;;;;;;;;;4.25;1.00;;;;;19.01;63.34;100746.63;4996929;28;47236;-44
2022/10/01 09:31:54;;;;;;;;;5.75;0.75;;;;;18.86;63.39;100743.25;4996892;28;45352;-43
2022/10/01 09:34:29;;;;;;;;;1.00;1.00;;;;;18.83;64.00;100746.34;4997012;28;45433;-44
2022/10/01 09:37:22;;;;;;;;;1.50;1.00;;;;;18.89;63.52;100756.34;4997027;28;45488;-43
2022/10/01 09:40:14;;;;;;;;;1.50;1.50;;;;;18.84;63.54;100756.13;4996893;28;46416;-44
2022/10/01 09:42:40;;;;;;;;;2.50;1.00;;;;;18.82;63.10;100768.94;4996815;28;45323;-42
2022/10/01 09:45:11;;;;;;;;;4.50;1.25;;;;;18.83;63.62;100768.72;4996748;28;45383;-44
2022/10/01 09:47:36;;;;;;;;;4.75;1.00;;;;;18.85;63.36;100776.63;4997082;28;45424;-46
2022/10/01 09:50:05;;;;;;;;;1.75;1.75;;;;;18.88;63.32;100773.53;4996468;28;46374;-44
2022/10/01 09:52:37;;;;;;;;;3.25;2.75;;;;;18.89;63.12;100762.56;5009143;28;45360;-41
2022/10/01 09:55:18;;;;;;;;;3.50;1.50;;;;;18.98;62.93;100779.38;5016482;28;45583;-43
2022/10/01 09:57:50;;;;;;;;;5.50;0.50;;;;;19.02;62.55;100777.94;5016628;28;45412;-48
2022/10/01 10:00:18;;;;;;;;;0.00;0.00;;;;;19.05;62.45;100782.94;5015976;28;46989;-42
2022/10/01 10:02:48;;;;;;;;;4.50;2.00;;;;;19.11;62.48;100789.38;5016316;28;45368;-41
2022/10/01 10:05:17;;;;;;;;;1.50;1.50;;;;;19.13;62.14;100790.00;5016212;28;45488;-43
2022/10/01 10:07:52;;;;;;;;;4.00;1.75;;;;;19.17;62.12;100802.91;5016406;28;45389;-46
2022/10/01 10:10:28;;;;;;;;;2.25;2.25;;;;;19.25;61.75;100787.56;5009268;28;46212;-43
2022/10/01 10:12:57;;;;;;;;;4.00;2.75;;;;;19.37;61.35;100800.25;5016200;28;45307;-43
2022/10/01 10:15:26;;;;;;;;;1.25;1.00;;;;;19.55;61.00;100796.16;5016366;28;45312;-42
2022/10/01 10:17:53;;;;;;;;;4.00;2.00;;;;;19.76;60.35;100798.72;5016186;28;45342;-44
2022/10/01 10:20:31;;;;;;;;;6.75;2.50;;;;;20.02;59.85;100800.63;5016019;28;46941;-43
2022/10/01 10:23:08;;;;;;;;;4.20;1.40;;;;;20.26;58.46;100801.03;5015591;28;45364;-47
2022/10/01 10:25:33;;;;;;;;;1.00;1.00;;;;;20.58;57.69;100811.00;5015962;28;45321;-43
2022/10/01 10:28:01;;;;;;;;;3.25;2.00;;;;;20.49;57.06;100741.19;5016369;28;45377;-43
2022/10/01 10:30:27;;;;;;;;;2.60;1.20;;;;;20.97;56.94;100801.09;5015766;28;46077;-42
2022/10/01 10:33:02;;;;;;;;;2.00;2.00;;;;;21.08;55.63;100797.75;5015548;28;45442;-44
2022/10/01 10:35:28;;;;;;;;;1.00;1.00;;;;;21.27;54.67;100808.69;5015911;28;45440;-42
2022/10/01 10:37:56;;;;;;;;;2.75;1.75;;;;;21.47;54.30;100816.75;5013726;28;45540;-43
2022/10/01 10:40:43;;;;;;;;;4.00;1.00;;;;;21.63;54.32;100803.53;5015645;28;45464;-44
2022/10/01 10:43:19;;;;;;;;;2.40;1.20;;;;;21.79;53.55;100795.94;5015319;28;45252;-44
2022/10/01 10:45:45;;;;;;;;;2.80;1.00;;;;;22.04;53.20;100817.63;5015937;28;45194;-43
2022/10/01 10:48:17;;;;;;;;;5.25;2.00;;;;;22.15;53.49;100812.31;5015753;28;45441;-42
2022/10/01 10:50:44;;;;;;;;;1.60;1.00;;;;;22.12;52.79;100812.78;5015239;28;45373;-42
2022/10/01 10:53:12;;;;;;;;;5.20;3.00;;;;;22.31;52.05;100807.41;5014964;28;45438;-42
2022/10/01 10:55:38;;;;;;;;;9.00;3.00;;;;;22.49;51.87;100812.84;5015902;28;45424;-53
2022/10/01 10:58:11;;;;;;;;;3.75;2.00;;;;;22.53;51.96;100811.34;5015834;28;45322;-42
2022/10/01 11:00:46;;;;;;;;;3.00;2.00;;;;;22.56;50.76;100810.91;5015609;28;46009;-43
2022/10/01 11:03:14;;;;;;;;;3.80;2.00;;;;;22.69;50.13;100828.94;5015623;28;45474;-52
2022/10/01 11:05:41;;;;;;;;;2.80;2.20;;;;;22.82;49.44;100833.38;5015748;28;45421;-45
2022/10/01 11:08:12;;;;;;;;;5.40;2.40;;;;;22.64;51.91;100826.06;5015778;28;45427;-43
2022/10/01 11:10:41;;;;;;;;;3.20;2.40;;;;;22.32;50.56;100836.16;5015539;28;45400;-43
2022/10/01 11:13:33;;;;;;;;;3.20;2.00;;;;;22.04;51.90;100837.41;5015694;28;45344;-43
2022/10/01 11:16:36;;;;;;;;;1.00;1.00;;;;;21.71;52.37;100839.53;5015577;28;45454;-45
2022/10/01 11:19:13;;;;;;;;;3.00;1.75;;;;;21.39;52.24;100839.47;5015747;28;45436;-42
2022/10/01 11:22:04;;;;;;;;;7.00;2.80;;;;;21.26;52.42;100853.84;5015321;28;45433;-50
2022/10/01 11:24:56;;;;;;;;;7.80;1.00;;;;;21.16;53.07;100846.19;5015163;28;45257;-52
2022/10/01 11:27:45;;;;;;;;;1.60;1.60;;;;;21.10;53.25;100849.75;4992600;28;45414;-43
2022/10/01 11:30:28;;;;;;;;;3.20;2.00;;;;;20.92;52.57;100834.19;5015701;28;45276;-44
2022/10/01 11:33:17;;;;;;;;;3.25;2.50;;;;;20.99;52.81;100844.19;5015001;28;46101;-44
2022/10/01 11:35:48;;;;;;;;;1.40;1.20;;;;;20.91;52.95;100851.47;5015205;28;45493;-46
2022/10/01 11:38:23;;;;;;;;;1.80;1.20;;;;;20.90;53.25;100847.13;5015394;28;45408;-54